sensor_id;sensor_type;location;lat;lon;timestamp;pressure;altitude;pressure_sealevel;temperature;humidity
14757;BME280;62446;53.214;10.398;2022-10-31T00:02:39;101579.03;;;9.06;81.37
14757;BME280;62446;53.214;10.398;2022-10-31T00:05:44;101575.81;;;8.95;81.86
14757;BME280;62446;53.214;10.398;2022-10-31T00:08:54;101580.25;;;8.96;81.53
14757;BME280;62446;53.214;10.398;2022-10-31T00:11:58;101573.72;;;8.97;81.78
14757;BME280;62446;53.214;10.398;2022-10-31T00:15:01;101572.13;;;8.81;81.60
14757;BME280;62446;53.214;10.398;2022-10-31T00:18:06;101586.84;;;8.67;82.77
14757;BME280;62446;53.214;10.398;2022-10-31T00:21:10;101586.09;;;8.80;82.96
14757;BME280;62446;53.214;10.398;2022-10-31T00:24:15;101585.19;;;8.73;81.57
14757;BME280;62446;53.214;10.398;2022-10-31T00:27:18;101586.91;;;8.52;82.82
14757;BME280;62446;53.214;10.398;2022-10-31T00:46:17;101594.00;;;7.96;88.57
14757;BME280;62446;53.214;10.398;2022-10-31T00:49:21;101590.34;;;8.11;86.20
14757;BME280;62446;53.214;10.398;2022-10-31T00:52:24;101594.38;;;8.15;86.10
14757;BME280;62446;53.214;10.398;2022-10-31T00:55:28;101605.78;;;8.12;85.58
14757;BME280;62446;53.214;10.398;2022-10-31T16:06:28;101598.78;;;10.73;92.04
14757;BME280;62446;53.214;10.398;2022-10-31T16:09:31;101593.84;;;10.95;89.55
14757;BME280;62446;53.214;10.398;2022-10-31T16:12:36;101588.91;;;11.24;87.04
14757;BME280;62446;53.214;10.398;2022-10-31T16:15:48;101588.28;;;11.22;87.12
14757;BME280;62446;53.214;10.398;2022-10-31T16:19:17;101585.28;;;11.17;86.75
14757;BME280;62446;53.214;10.398;2022-10-31T16:22:27;101581.91;;;11.15;87.33
14757;BME280;62446;53.214;10.398;2022-10-31T16:25:35;101581.91;;;11.28;85.63
14757;BME280;62446;53.214;10.398;2022-10-31T16:28:50;101582.34;;;11.11;87.01
14757;BME280;62446;53.214;10.398;2022-10-31T16:32:04;101568.97;;;11.08;86.89
14757;BME280;62446;53.214;10.398;2022-10-31T16:35:23;101569.81;;;11.16;86.11
14757;BME280;62446;53.214;10.398;2022-10-31T16:38:29;101561.53;;;11.16;86.08
14757;BME280;62446;53.214;10.398;2022-10-31T16:41:35;101556.91;;;11.03;86.83
14757;BME280;62446;53.214;10.398;2022-10-31T16:44:47;101547.56;;;10.97;87.45
14757;BME280;62446;53.214;10.398;2022-10-31T16:47:52;101546.31;;;10.93;87.84
14757;BME280;62446;53.214;10.398;2022-10-31T16:50:55;101555.63;;;10.99;87.71
14757;BME280;62446;53.214;10.398;2022-10-31T16:54:00;101555.22;;;10.88;88.45
14757;BME280;62446;53.214;10.398;2022-10-31T16:57:05;101545.81;;;11.23;85.43
14757;BME280;62446;53.214;10.398;2022-10-31T17:00:13;101549.22;;;11.25;86.87
14757;BME280;62446;53.214;10.398;2022-10-31T17:03:17;101547.03;;;11.34;86.32
14757;BME280;62446;53.214;10.398;2022-10-31T17:06:21;101542.81;;;11.31;86.24
14757;BME280;62446;53.214;10.398;2022-10-31T17:09:26;101524.16;;;11.20;87.04
14757;BME280;62446;53.214;10.398;2022-10-31T17:12:30;101526.50;;;11.23;87.02
14757;BME280;62446;53.214;10.398;2022-10-31T17:15:38;101522.44;;;11.25;86.84
14757;BME280;62446;53.214;10.398;2022-10-31T17:18:43;101521.63;;;11.11;88.03
14757;BME280;62446;53.214;10.398;2022-10-31T17:21:48;101520.31;;;11.21;87.40
14757;BME280;62446;53.214;10.398;2022-10-31T17:24:53;101515.63;;;11.28;86.84
14757;BME280;62446;53.214;10.398;2022-10-31T17:27:57;101516.44;;;11.35;86.66
14757;BME280;62446;53.214;10.398;2022-10-31T17:31:01;101524.97;;;11.34;86.14
14757;BME280;62446;53.214;10.398;2022-10-31T17:34:05;101524.13;;;11.33;86.47
14757;BME280;62446;53.214;10.398;2022-10-31T17:37:10;101525.50;;;10.97;88.50
14757;BME280;62446;53.214;10.398;2022-10-31T17:40:18;101530.97;;;11.10;87.69
14757;BME280;62446;53.214;10.398;2022-10-31T17:43:22;101525.25;;;11.05;87.96
14757;BME280;62446;53.214;10.398;2022-10-31T17:46:28;101519.91;;;11.17;87.08
14757;BME280;62446;53.214;10.398;2022-10-31T17:49:32;101519.06;;;11.23;86.82
14757;BME280;62446;53.214;10.398;2022-10-31T17:52:35;101527.97;;;11.19;86.69
14757;BME280;62446;53.214;10.398;2022-10-31T17:55:40;101525.44;;;11.10;86.74
14757;BME280;62446;53.214;10.398;2022-10-31T17:58:44;101520.34;;;11.14;86.92
14757;BME280;62446;53.214;10.398;2022-10-31T18:01:48;101514.63;;;11.09;87.38
14757;BME280;62446;53.214;10.398;2022-10-31T18:04:52;101511.47;;;11.05;87.37
14757;BME280;62446;53.214;10.398;2022-10-31T18:07:56;101513.13;;;11.13;86.98
14757;BME280;62446;53.214;10.398;2022-10-31T18:11:09;101498.59;;;11.38;85.83
14757;BME280;62446;53.214;10.398;2022-10-31T18:14:13;101501.50;;;11.50;84.65
14757;BME280;62446;53.214;10.398;2022-10-31T18:17:17;101495.69;;;11.19;85.74
14757;BME280;62446;53.214;10.398;2022-10-31T18:20:21;101478.34;;;11.05;87.16
14757;BME280;62446;53.214;10.398;2022-10-31T18:23:24;101479.25;;;10.92;87.78
14757;BME280;62446;53.214;10.398;2022-10-31T18:26:30;101480.94;;;10.87;88.09
14757;BME280;62446;53.214;10.398;2022-10-31T18:29:33;101465.94;;;10.69;88.74
14757;BME280;62446;53.214;10.398;2022-10-31T18:32:37;101454.84;;;10.89;88.01
14757;BME280;62446;53.214;10.398;2022-10-31T18:35:40;101466.09;;;10.88;87.90
14757;BME280;62446;53.214;10.398;2022-10-31T18:38:44;101463.50;;;10.93;87.43
14757;BME280;62446;53.214;10.398;2022-10-31T18:41:49;101467.00;;;10.68;88.88
14757;BME280;62446;53.214;10.398;2022-10-31T18:44:53;101494.56;;;10.75;88.91
14757;BME280;62446;53.214;10.398;2022-10-31T18:47:56;101485.06;;;10.64;89.36
14757;BME280;62446;53.214;10.398;2022-10-31T18:51:01;101505.06;;;11.05;87.72
14757;BME280;62446;53.214;10.398;2022-10-31T18:54:07;101492.06;;;10.60;88.97
14757;BME280;62446;53.214;10.398;2022-10-31T18:57:12;101486.91;;;10.84;88.28
14757;BME280;62446;53.214;10.398;2022-10-31T19:00:16;101500.09;;;10.82;89.00
14757;BME280;62446;53.214;10.398;2022-10-31T19:03:20;101486.72;;;10.65;89.77
14757;BME280;62446;53.214;10.398;2022-10-31T19:06:27;101488.44;;;10.66;89.76
14757;BME280;62446;53.214;10.398;2022-10-31T19:09:32;101467.78;;;10.89;88.63
14757;BME280;62446;53.214;10.398;2022-10-31T19:12:37;101469.69;;;10.88;88.56
14757;BME280;62446;53.214;10.398;2022-10-31T19:15:41;101463.06;;;10.96;88.25
14757;BME280;62446;53.214;10.398;2022-10-31T19:18:44;101431.22;;;11.00;87.91
14757;BME280;62446;53.214;10.398;2022-10-31T19:21:48;101428.00;;;10.58;90.68
14757;BME280;62446;53.214;10.398;2022-10-31T19:24:52;101417.34;;;10.68;90.48
14757;BME280;62446;53.214;10.398;2022-10-31T19:27:57;101412.78;;;10.35;92.36
14757;BME280;62446;53.214;10.398;2022-10-31T19:31:02;101416.13;;;10.57;91.28
14757;BME280;62446;53.214;10.398;2022-10-31T19:34:06;101416.38;;;10.43;92.20
14757;BME280;62446;53.214;10.398;2022-10-31T19:37:09;101425.88;;;10.53;91.61
14757;BME280;62446;53.214;10.398;2022-10-31T19:40:13;101418.91;;;11.03;88.54
14757;BME280;62446;53.214;10.398;2022-10-31T19:43:18;101416.59;;;10.93;89.15
14757;BME280;62446;53.214;10.398;2022-10-31T19:46:22;101402.88;;;10.86;89.12
14757;BME280;62446;53.214;10.398;2022-10-31T19:49:46;101403.38;;;10.63;90.95
14757;BME280;62446;53.214;10.398;2022-10-31T19:52:50;101393.94;;;10.84;89.97
14757;BME280;62446;53.214;10.398;2022-10-31T19:55:53;101384.69;;;10.65;90.45
14757;BME280;62446;53.214;10.398;2022-10-31T19:58:58;101365.19;;;10.60;91.09
14757;BME280;62446;53.214;10.398;2022-10-31T20:02:03;101351.84;;;10.57;91.13
14757;BME280;62446;53.214;10.398;2022-10-31T20:05:08;101354.41;;;10.58;90.35
14757;BME280;62446;53.214;10.398;2022-10-31T20:08:13;101367.31;;;10.58;90.68
14757;BME280;62446;53.214;10.398;2022-10-31T20:11:17;101388.78;;;11.01;88.47
14757;BME280;62446;53.214;10.398;2022-10-31T20:14:22;101399.94;;;11.52;85.63
14757;BME280;62446;53.214;10.398;2022-10-31T20:17:26;101405.34;;;11.65;85.18
14757;BME280;62446;53.214;10.398;2022-10-31T20:20:30;101418.00;;;11.79;84.58
14757;BME280;62446;53.214;10.398;2022-10-31T20:23:34;101411.19;;;11.82;83.56
14757;BME280;62446;53.214;10.398;2022-10-31T20:26:40;101417.75;;;11.56;84.52
14757;BME280;62446;53.214;10.398;2022-10-31T20:29:45;101406.69;;;11.31;86.09
14757;BME280;62446;53.214;10.398;2022-10-31T20:32:48;101399.34;;;11.11;87.32
14757;BME280;62446;53.214;10.398;2022-10-31T20:35:52;101392.16;;;11.03;88.70
14757;BME280;62446;53.214;10.398;2022-10-31T20:38:56;101394.38;;;10.88;89.23
14757;BME280;62446;53.214;10.398;2022-10-31T20:42:00;101385.28;;;10.81;89.76
14757;BME280;62446;53.214;10.398;2022-10-31T20:45:06;101378.25;;;10.85;89.95
14757;BME280;62446;53.214;10.398;2022-10-31T20:48:10;101379.84;;;10.99;88.50
14757;BME280;62446;53.214;10.398;2022-10-31T20:51:15;101374.84;;;10.83;90.15
14757;BME280;62446;53.214;10.398;2022-10-31T20:54:19;101365.97;;;10.81;89.62
14757;BME280;62446;53.214;10.398;2022-10-31T20:57:23;101376.69;;;10.57;91.23
14757;BME280;62446;53.214;10.398;2022-10-31T21:00:28;101364.72;;;10.70;90.87
14757;BME280;62446;53.214;10.398;2022-10-31T21:03:31;101355.97;;;10.80;90.37
14757;BME280;62446;53.214;10.398;2022-10-31T21:06:38;101353.91;;;10.68;91.15
14757;BME280;62446;53.214;10.398;2022-10-31T21:09:47;101350.28;;;10.74;90.38
14757;BME280;62446;53.214;10.398;2022-10-31T21:12:51;101348.66;;;10.60;91.38
14757;BME280;62446;53.214;10.398;2022-10-31T21:16:00;101343.16;;;10.53;91.96
14757;BME280;62446;53.214;10.398;2022-10-31T21:19:04;101342.75;;;10.50;91.78
14757;BME280;62446;53.214;10.398;2022-10-31T21:22:08;101342.25;;;10.73;91.12
14757;BME280;62446;53.214;10.398;2022-10-31T21:25:12;101336.28;;;10.76;90.42
14757;BME280;62446;53.214;10.398;2022-10-31T21:28:16;101341.28;;;10.86;89.74
14757;BME280;62446;53.214;10.398;2022-10-31T21:31:21;101336.16;;;10.96;88.51
14757;BME280;62446;53.214;10.398;2022-10-31T21:34:25;101332.16;;;10.92;89.08
14757;BME280;62446;53.214;10.398;2022-10-31T21:37:29;101329.41;;;10.92;88.88
